ABClima

Estação meteorológica automática A01
Porto Acre

Porto Acre - AC
Lat: S 9° 35' 23,2'' Lon: W 67° 33' 3,0'' Alt: 149 m

2011

Chuvas (mm), ano 2012
  Vento (m/s)
Vento máx. (m/s)
Vento dir. (°)
Pressão (mbar)
Temp max. (°C)
Temp min. (°C)
Temp med. (°C)
Ur max. (%)
Ur min. (%)
Ur med. (%)
01/01/2012   1,01 1,7 209,7 992,23 29,89 22,848 25,209 97 76,8 90,726
02/01/2012   0,85 1,43 224,7 992,246 29,966 22,609 24,465 97,4 78,9 94,156
03/01/2012   0,64 1,15 123,3 993,674 23,954 21,748 23,123 97,8 93,9 96,103
04/01/2012   0,61 1,06 179,9 993,658 29,165 21,748 23,629 98 77,4 94,917
05/01/2012   0,89 1,57 208,5 992,359 29,941 21,437 24,693 97,9 77,8 91,813
06/01/2012   1,02 1,8 225,4 991,844 33,157 22,25 25,572 97,1 65,2 87,87
07/01/2012   0,91 1,63 194,7 992,253 31,382 22,226 24,738 97,1 70,1 91,232
08/01/2012   0,75 1,26 212,7 993,553 26,916 21,39 23,128 97,6 85,2 95,141
09/01/2012   1,44 2,38 224,9 991,824 32,355 21,008 25,552 98 66,3 87,007
10/01/2012   1,02 1,76 198,3 989,837 33,001 22,321 26,417 97,2 63,9 86,351
11/01/2012   1 1,83 78 989,952 30,9 23,521 25,738 96,3 73,9 90,182
12/01/2012   1,05 1,79 139,4 991,069 31,204 22,321 25,474 97,5 71,9 89,783
13/01/2012   0,69 1,21 156,1 992,513 31,561 21,557 24,111 97,4 72,3 92,833
14/01/2012   0,91 1,52 198,4 994,983 28,642 21,461 23,564 97,7 78 93,308
15/01/2012   0,98 1,65 208,1 995,147 30,041 21,509 24,336 96,9 73,3 89,699
16/01/2012   1,16 1,96 204,6 993,792 33,001 20,65 26,03 97,8 58,4 83,811
17/01/2012   1,33 2,3 201,6 992,331 32,51 22,25 26,323 96,3 61 84,346
18/01/2012   1,08 1,86 193,4 990,899 31,919 21,557 25,11 97,1 62,5 88,542
19/01/2012   0,92 1,61 180,6 990,913 27,407 21,628 23,032 97,5 85,1 95,177
20/01/2012   1,1 1,9 210,9 991,129 31,306 21,628 24,04 97,4 69,9 91,542
21/01/2012   0,95 1,61 241,1 991,77 30,167 21,987 24,531 96,7 68,2 89,668
22/01/2012   1,14 1,97 181,5 990,868 32,098 21,032 25,376 97,6 65,3 86,427
23/01/2012   0,81 1,53 106,4 990,805 29,966 21,891 24,665 97 70,9 90,44
24/01/2012   1,03 1,86 127,8 990,013 31,663 21,175 25,131 97,7 66,1 89,334
25/01/2012   0,99 1,72 156,4 990,891 32,124 22,274 25,281 97,2 68,5 89,985
26/01/2012   1,23 1,93 222,5 992,992 27,161 21,676 23,985 97,7 83,9 92,92
27/01/2012   1,23 1,93 222,5 992,992 27,161 21,676 23,985 97,7 83,9 92,92